Main page
METAR-TAF:

METAR-TAF

Airports :

RAF Brize Norton

Brize Norton, England

latitude: 51-45N, longitude: 001-35W, elevation: 88 m

Current weather observation

The report was made 17 minutes ago, at 19:20 UTC
Wind 4 kt from the West
Temperature 14°C
Humidity 72%
Pressure 1006 hPa
Visibility 10 km or more
Few clouds at a height of 3500 ft

METAR: EGVN 281920Z 26004KT 9999 FEW035 14/09 Q1006 NOSIG RMK BLACKBLU BLU

Time: 20:37 (19:37 UTC)

Forecast

The report was made 2 hours and 54 minutes ago, at 16:43 UTC
Forecast valid from 28 at 18 UTC to 29 at 18 UTC
Wind 12 kt from the Southwest
Visibility 10 km or more
Few clouds at a height of 2200 ft
Scattered clouds at a height of 3500 ft
Probability 30% :
Temporary
from 28 at 18 UTC to 28 at 19 UTC
Wind 15 kt from the West/Southwest with gusts up to 25 kt
Visibility: 6000 m
Broken clouds at a height of 2200 ft, Cumulonimbus.
rain showers

TAF: EGVN 281643Z 2818/2918 23012KT 9999 FEW022 SCT035 PROB30 TEMPO 2818/2819 24015G25KT 6000 SHRA BKN022CB

Weather observations and forecasts of more than 4000 airports (METAR and TAF reports).

The available stations are represented by yellow and red dots on the map.

Hover mouse over dot to see the name of the station.

Then click to see weather observations and forecasts.

To change the map : click on the green buttons with a black cross to zoom in, on the green button with a dash to zoom out, or on the green arrows for adjacent maps.


METAR-TAF: